Terminal Aerodrome Forecast
Issued by NWS

Home | Current Version | Previous Version | Graphics & Text | Print | Product List | Glossary On
Versions: 1 2 3 4 5 6 7 8 9 10 11 12 13 14 15 16 17 18 19 20
000
FTUS43 KGRB 311251 AAA
TAFCWA
TAF AMD
KCWA 311251Z 3113/0112 21003KT 1SM BR OVC002
      TEMPO 3113/3114 1/4SM FG
     FM311400 21005KT P6SM FEW005 BKN015
     FM311600 21009G15KT P6SM SCT025
     FM010000 19005KT P6SM SKC
      TEMPO 0109/0112 2SM BR=

USA.gov is the U.S. government's official web portal to all federal, state and local government web resources and services.